sensor_id;sensor_type;location;lat;lon;timestamp;pressure;altitude;pressure_sealevel;temperature
11240;BMP180;5677;48.488;13.436;2022-09-03T00:00:03;97569.00;;;20.60
11240;BMP180;5677;48.488;13.436;2022-09-03T00:02:38;97561.00;;;20.60
11240;BMP180;5677;48.488;13.436;2022-09-03T00:05:17;97562.00;;;20.60
11240;BMP180;5677;48.488;13.436;2022-09-03T00:07:53;97570.00;;;20.60
11240;BMP180;5677;48.488;13.436;2022-09-03T00:10:28;97564.00;;;20.60
11240;BMP180;5677;48.488;13.436;2022-09-03T00:13:03;97570.00;;;20.60
11240;BMP180;5677;48.488;13.436;2022-09-03T00:15:33;97573.00;;;20.60
11240;BMP180;5677;48.488;13.436;2022-09-03T00:18:06;97575.00;;;20.60
11240;BMP180;5677;48.488;13.436;2022-09-03T00:20:39;97587.00;;;20.60
11240;BMP180;5677;48.488;13.436;2022-09-03T00:23:13;97585.00;;;20.60
11240;BMP180;5677;48.488;13.436;2022-09-03T00:25:49;97587.00;;;20.60
11240;BMP180;5677;48.488;13.436;2022-09-03T00:28:24;97596.00;;;20.60
11240;BMP180;5677;48.488;13.436;2022-09-03T00:31:18;97599.00;;;20.60
11240;BMP180;5677;48.488;13.436;2022-09-03T00:33:49;97596.00;;;20.50
11240;BMP180;5677;48.488;13.436;2022-09-03T00:36:22;97596.00;;;20.60
11240;BMP180;5677;48.488;13.436;2022-09-03T00:38:51;97592.00;;;20.50
11240;BMP180;5677;48.488;13.436;2022-09-03T00:41:29;97589.00;;;20.50
11240;BMP180;5677;48.488;13.436;2022-09-03T00:44:36;97587.00;;;20.50
11240;BMP180;5677;48.488;13.436;2022-09-03T00:47:21;97583.00;;;20.50
11240;BMP180;5677;48.488;13.436;2022-09-03T00:50:04;97588.00;;;20.50
11240;BMP180;5677;48.488;13.436;2022-09-03T00:52:47;97587.00;;;20.50
11240;BMP180;5677;48.488;13.436;2022-09-03T00:55:34;97586.00;;;20.50
11240;BMP180;5677;48.488;13.436;2022-09-03T00:58:27;97588.00;;;20.50
11240;BMP180;5677;48.488;13.436;2022-09-03T01:00:59;97583.00;;;20.50
11240;BMP180;5677;48.488;13.436;2022-09-03T01:03:40;97586.00;;;20.50
11240;BMP180;5677;48.488;13.436;2022-09-03T01:06:17;97576.00;;;20.50
11240;BMP180;5677;48.488;13.436;2022-09-03T01:09:11;97584.00;;;20.50
11240;BMP180;5677;48.488;13.436;2022-09-03T01:11:54;97572.00;;;20.50
11240;BMP180;5677;48.488;13.436;2022-09-03T01:14:39;97573.00;;;20.50
11240;BMP180;5677;48.488;13.436;2022-09-03T01:17:21;97563.00;;;20.50
11240;BMP180;5677;48.488;13.436;2022-09-03T01:20:28;97570.00;;;20.50
11240;BMP180;5677;48.488;13.436;2022-09-03T01:23:46;97587.00;;;20.50
11240;BMP180;5677;48.488;13.436;2022-09-03T01:26:31;97589.00;;;20.50
11240;BMP180;5677;48.488;13.436;2022-09-03T01:29:12;97587.00;;;20.40
11240;BMP180;5677;48.488;13.436;2022-09-03T01:31:49;97578.00;;;20.40
11240;BMP180;5677;48.488;13.436;2022-09-03T01:34:31;97581.00;;;20.50
11240;BMP180;5677;48.488;13.436;2022-09-03T01:37:10;97593.00;;;20.40
11240;BMP180;5677;48.488;13.436;2022-09-03T01:39:53;97604.00;;;20.40
11240;BMP180;5677;48.488;13.436;2022-09-03T01:42:32;97612.00;;;20.40
11240;BMP180;5677;48.488;13.436;2022-09-03T01:45:24;97616.00;;;20.40
11240;BMP180;5677;48.488;13.436;2022-09-03T01:48:11;97620.00;;;20.40
11240;BMP180;5677;48.488;13.436;2022-09-03T01:50:49;97615.00;;;20.40
11240;BMP180;5677;48.488;13.436;2022-09-03T01:53:35;97603.00;;;20.40
11240;BMP180;5677;48.488;13.436;2022-09-03T01:56:24;97603.00;;;20.40
11240;BMP180;5677;48.488;13.436;2022-09-03T01:59:02;97598.00;;;20.40
11240;BMP180;5677;48.488;13.436;2022-09-03T02:01:38;97609.00;;;20.40
11240;BMP180;5677;48.488;13.436;2022-09-03T02:04:16;97608.00;;;20.40
11240;BMP180;5677;48.488;13.436;2022-09-03T02:06:44;97611.00;;;20.40
11240;BMP180;5677;48.488;13.436;2022-09-03T02:09:13;97608.00;;;20.40
11240;BMP180;5677;48.488;13.436;2022-09-03T02:11:43;97600.00;;;20.40
11240;BMP180;5677;48.488;13.436;2022-09-03T02:14:13;97602.00;;;20.40
11240;BMP180;5677;48.488;13.436;2022-09-03T02:16:41;97595.00;;;20.40
11240;BMP180;5677;48.488;13.436;2022-09-03T02:19:14;97606.00;;;20.40
11240;BMP180;5677;48.488;13.436;2022-09-03T02:21:46;97614.00;;;20.40
11240;BMP180;5677;48.488;13.436;2022-09-03T02:24:13;97612.00;;;20.30
11240;BMP180;5677;48.488;13.436;2022-09-03T02:26:40;97611.00;;;20.30
11240;BMP180;5677;48.488;13.436;2022-09-03T02:29:08;97617.00;;;20.30
11240;BMP180;5677;48.488;13.436;2022-09-03T02:31:36;97608.00;;;20.30
11240;BMP180;5677;48.488;13.436;2022-09-03T02:34:04;97610.00;;;20.30
11240;BMP180;5677;48.488;13.436;2022-09-03T02:36:35;97608.00;;;20.30
11240;BMP180;5677;48.488;13.436;2022-09-03T02:39:03;97600.00;;;20.30
11240;BMP180;5677;48.488;13.436;2022-09-03T02:41:31;97611.00;;;20.30
11240;BMP180;5677;48.488;13.436;2022-09-03T02:44:03;97613.00;;;20.30
11240;BMP180;5677;48.488;13.436;2022-09-03T02:46:38;97612.00;;;20.30
11240;BMP180;5677;48.488;13.436;2022-09-03T02:49:07;97609.00;;;20.30
11240;BMP180;5677;48.488;13.436;2022-09-03T02:51:37;97619.00;;;20.30
11240;BMP180;5677;48.488;13.436;2022-09-03T02:54:04;97611.00;;;20.30
11240;BMP180;5677;48.488;13.436;2022-09-03T02:56:32;97604.00;;;20.30
11240;BMP180;5677;48.488;13.436;2022-09-03T02:58:59;97598.00;;;20.30
11240;BMP180;5677;48.488;13.436;2022-09-03T03:01:26;97599.00;;;20.30
11240;BMP180;5677;48.488;13.436;2022-09-03T03:03:53;97608.00;;;20.30
11240;BMP180;5677;48.488;13.436;2022-09-03T03:06:21;97591.00;;;20.30
11240;BMP180;5677;48.488;13.436;2022-09-03T03:08:49;97591.00;;;20.30
11240;BMP180;5677;48.488;13.436;2022-09-03T03:11:17;97592.00;;;20.30
11240;BMP180;5677;48.488;13.436;2022-09-03T03:13:45;97594.00;;;20.20
11240;BMP180;5677;48.488;13.436;2022-09-03T03:16:14;97596.00;;;20.30
11240;BMP180;5677;48.488;13.436;2022-09-03T03:18:42;97596.00;;;20.20
11240;BMP180;5677;48.488;13.436;2022-09-03T03:21:13;97600.00;;;20.20
11240;BMP180;5677;48.488;13.436;2022-09-03T03:23:42;97601.00;;;20.20
11240;BMP180;5677;48.488;13.436;2022-09-03T03:26:13;97599.00;;;20.20
11240;BMP180;5677;48.488;13.436;2022-09-03T03:28:43;97600.00;;;20.20
11240;BMP180;5677;48.488;13.436;2022-09-03T03:31:15;97601.00;;;20.20
11240;BMP180;5677;48.488;13.436;2022-09-03T03:33:43;97596.00;;;20.20
11240;BMP180;5677;48.488;13.436;2022-09-03T03:36:13;97598.00;;;20.20
11240;BMP180;5677;48.488;13.436;2022-09-03T03:38:42;97598.00;;;20.20
11240;BMP180;5677;48.488;13.436;2022-09-03T03:41:13;97605.00;;;20.20
11240;BMP180;5677;48.488;13.436;2022-09-03T03:43:40;97606.00;;;20.20
11240;BMP180;5677;48.488;13.436;2022-09-03T03:46:07;97608.00;;;20.20
11240;BMP180;5677;48.488;13.436;2022-09-03T03:48:36;97613.00;;;20.20
11240;BMP180;5677;48.488;13.436;2022-09-03T03:51:06;97617.00;;;20.20
11240;BMP180;5677;48.488;13.436;2022-09-03T03:53:35;97611.00;;;20.20
11240;BMP180;5677;48.488;13.436;2022-09-03T03:56:07;97610.00;;;20.20
11240;BMP180;5677;48.488;13.436;2022-09-03T03:58:36;97623.00;;;20.20
11240;BMP180;5677;48.488;13.436;2022-09-03T04:01:11;97623.00;;;20.20
11240;BMP180;5677;48.488;13.436;2022-09-03T04:03:39;97617.00;;;20.20
11240;BMP180;5677;48.488;13.436;2022-09-03T04:06:08;97620.00;;;20.10
11240;BMP180;5677;48.488;13.436;2022-09-03T04:08:38;97634.00;;;20.20
11240;BMP180;5677;48.488;13.436;2022-09-03T04:11:09;97621.00;;;20.20
11240;BMP180;5677;48.488;13.436;2022-09-03T04:13:38;97611.00;;;20.20
11240;BMP180;5677;48.488;13.436;2022-09-03T04:16:09;97609.00;;;20.10
11240;BMP180;5677;48.488;13.436;2022-09-03T04:18:37;97607.00;;;20.10
11240;BMP180;5677;48.488;13.436;2022-09-03T04:21:07;97621.00;;;20.10
11240;BMP180;5677;48.488;13.436;2022-09-03T04:23:38;97624.00;;;20.10
11240;BMP180;5677;48.488;13.436;2022-09-03T04:26:09;97615.00;;;20.10
11240;BMP180;5677;48.488;13.436;2022-09-03T04:28:36;97618.00;;;20.10
11240;BMP180;5677;48.488;13.436;2022-09-03T04:31:05;97627.00;;;20.10
11240;BMP180;5677;48.488;13.436;2022-09-03T04:33:33;97622.00;;;20.10
11240;BMP180;5677;48.488;13.436;2022-09-03T04:36:04;97623.00;;;20.10
11240;BMP180;5677;48.488;13.436;2022-09-03T04:38:32;97616.00;;;20.10
11240;BMP180;5677;48.488;13.436;2022-09-03T04:41:00;97614.00;;;20.10
11240;BMP180;5677;48.488;13.436;2022-09-03T04:43:29;97615.00;;;20.10
11240;BMP180;5677;48.488;13.436;2022-09-03T04:45:57;97618.00;;;20.10
11240;BMP180;5677;48.488;13.436;2022-09-03T04:48:25;97615.00;;;20.10
11240;BMP180;5677;48.488;13.436;2022-09-03T04:50:52;97609.00;;;20.10
11240;BMP180;5677;48.488;13.436;2022-09-03T04:53:20;97623.00;;;20.10
11240;BMP180;5677;48.488;13.436;2022-09-03T04:55:48;97621.00;;;20.10
11240;BMP180;5677;48.488;13.436;2022-09-03T04:58:15;97627.00;;;20.10
11240;BMP180;5677;48.488;13.436;2022-09-03T05:00:44;97625.00;;;20.10
11240;BMP180;5677;48.488;13.436;2022-09-03T05:03:11;97632.00;;;20.10
11240;BMP180;5677;48.488;13.436;2022-09-03T05:05:38;97630.00;;;20.10
11240;BMP180;5677;48.488;13.436;2022-09-03T05:08:05;97630.00;;;20.10
11240;BMP180;5677;48.488;13.436;2022-09-03T05:10:32;97627.00;;;20.10
11240;BMP180;5677;48.488;13.436;2022-09-03T05:13:01;97631.00;;;20.10
11240;BMP180;5677;48.488;13.436;2022-09-03T05:15:29;97631.00;;;20.00
11240;BMP180;5677;48.488;13.436;2022-09-03T05:18:00;97630.00;;;20.00
11240;BMP180;5677;48.488;13.436;2022-09-03T05:20:28;97623.00;;;20.10
11240;BMP180;5677;48.488;13.436;2022-09-03T05:23:01;97627.00;;;20.00
11240;BMP180;5677;48.488;13.436;2022-09-03T05:25:29;97628.00;;;20.00
11240;BMP180;5677;48.488;13.436;2022-09-03T05:27:57;97628.00;;;20.00
11240;BMP180;5677;48.488;13.436;2022-09-03T05:30:24;97622.00;;;20.00
11240;BMP180;5677;48.488;13.436;2022-09-03T05:32:51;97626.00;;;20.00
11240;BMP180;5677;48.488;13.436;2022-09-03T05:35:19;97622.00;;;20.00
11240;BMP180;5677;48.488;13.436;2022-09-03T05:37:46;97629.00;;;20.00
11240;BMP180;5677;48.488;13.436;2022-09-03T05:40:13;97630.00;;;20.00
11240;BMP180;5677;48.488;13.436;2022-09-03T05:42:40;97631.00;;;20.00
11240;BMP180;5677;48.488;13.436;2022-09-03T05:45:09;97626.00;;;20.00
11240;BMP180;5677;48.488;13.436;2022-09-03T05:47:37;97620.00;;;20.00
11240;BMP180;5677;48.488;13.436;2022-09-03T05:50:07;97628.00;;;20.00
11240;BMP180;5677;48.488;13.436;2022-09-03T05:52:36;97640.00;;;20.00
11240;BMP180;5677;48.488;13.436;2022-09-03T05:55:04;97635.00;;;20.00
11240;BMP180;5677;48.488;13.436;2022-09-03T05:57:31;97638.00;;;20.00
11240;BMP180;5677;48.488;13.436;2022-09-03T05:59:58;97639.00;;;20.00
11240;BMP180;5677;48.488;13.436;2022-09-03T06:02:26;97635.00;;;20.00
11240;BMP180;5677;48.488;13.436;2022-09-03T06:04:53;97630.00;;;20.00
11240;BMP180;5677;48.488;13.436;2022-09-03T06:07:20;97638.00;;;20.00
11240;BMP180;5677;48.488;13.436;2022-09-03T06:09:48;97638.00;;;20.00
11240;BMP180;5677;48.488;13.436;2022-09-03T06:12:15;97637.00;;;20.00
11240;BMP180;5677;48.488;13.436;2022-09-03T06:14:42;97630.00;;;20.00
11240;BMP180;5677;48.488;13.436;2022-09-03T06:17:09;97620.00;;;20.00
11240;BMP180;5677;48.488;13.436;2022-09-03T06:19:37;97622.00;;;20.00
11240;BMP180;5677;48.488;13.436;2022-09-03T06:22:04;97631.00;;;20.10
11240;BMP180;5677;48.488;13.436;2022-09-03T06:24:31;97626.00;;;20.10
11240;BMP180;5677;48.488;13.436;2022-09-03T06:26:59;97630.00;;;20.10
11240;BMP180;5677;48.488;13.436;2022-09-03T06:29:27;97638.00;;;20.10
11240;BMP180;5677;48.488;13.436;2022-09-03T06:31:54;97636.00;;;20.10
11240;BMP180;5677;48.488;13.436;2022-09-03T06:34:21;97641.00;;;20.10
11240;BMP180;5677;48.488;13.436;2022-09-03T06:36:50;97646.00;;;20.10
11240;BMP180;5677;48.488;13.436;2022-09-03T06:39:18;97641.00;;;20.20
11240;BMP180;5677;48.488;13.436;2022-09-03T06:41:45;97640.00;;;20.20
11240;BMP180;5677;48.488;13.436;2022-09-03T06:44:17;97633.00;;;20.20
11240;BMP180;5677;48.488;13.436;2022-09-03T06:46:44;97633.00;;;20.20
11240;BMP180;5677;48.488;13.436;2022-09-03T06:49:13;97631.00;;;20.20
11240;BMP180;5677;48.488;13.436;2022-09-03T06:51:40;97630.00;;;20.20
11240;BMP180;5677;48.488;13.436;2022-09-03T06:54:10;97643.00;;;20.30
11240;BMP180;5677;48.488;13.436;2022-09-03T06:56:39;97643.00;;;20.30
11240;BMP180;5677;48.488;13.436;2022-09-03T06:59:09;97638.00;;;20.30
11240;BMP180;5677;48.488;13.436;2022-09-03T07:01:38;97632.00;;;20.30
11240;BMP180;5677;48.488;13.436;2022-09-03T07:04:07;97633.00;;;20.40
11240;BMP180;5677;48.488;13.436;2022-09-03T07:06:37;97628.00;;;20.40
11240;BMP180;5677;48.488;13.436;2022-09-03T07:09:05;97637.00;;;20.40
11240;BMP180;5677;48.488;13.436;2022-09-03T07:11:34;97629.00;;;20.40
11240;BMP180;5677;48.488;13.436;2022-09-03T07:14:03;97626.00;;;20.40
11240;BMP180;5677;48.488;13.436;2022-09-03T07:16:34;97623.00;;;20.40
11240;BMP180;5677;48.488;13.436;2022-09-03T07:19:03;97621.00;;;20.40
11240;BMP180;5677;48.488;13.436;2022-09-03T07:21:32;97622.00;;;20.40
11240;BMP180;5677;48.488;13.436;2022-09-03T07:24:02;97627.00;;;20.50
11240;BMP180;5677;48.488;13.436;2022-09-03T07:26:32;97630.00;;;20.50
11240;BMP180;5677;48.488;13.436;2022-09-03T07:28:59;97635.00;;;20.50
11240;BMP180;5677;48.488;13.436;2022-09-03T07:31:30;97632.00;;;20.50
11240;BMP180;5677;48.488;13.436;2022-09-03T07:34:03;97637.00;;;20.50
11240;BMP180;5677;48.488;13.436;2022-09-03T07:36:35;97638.00;;;20.50
11240;BMP180;5677;48.488;13.436;2022-09-03T07:39:04;97640.00;;;20.50
11240;BMP180;5677;48.488;13.436;2022-09-03T07:41:31;97635.00;;;20.50
11240;BMP180;5677;48.488;13.436;2022-09-03T07:43:59;97641.00;;;20.60
11240;BMP180;5677;48.488;13.436;2022-09-03T07:46:32;97644.00;;;20.60
11240;BMP180;5677;48.488;13.436;2022-09-03T07:49:02;97652.00;;;20.60
11240;BMP180;5677;48.488;13.436;2022-09-03T07:51:34;97652.00;;;20.60
11240;BMP180;5677;48.488;13.436;2022-09-03T07:54:04;97662.00;;;20.60
11240;BMP180;5677;48.488;13.436;2022-09-03T07:56:33;97670.00;;;20.60
11240;BMP180;5677;48.488;13.436;2022-09-03T07:59:01;97666.00;;;20.60
11240;BMP180;5677;48.488;13.436;2022-09-03T08:01:29;97662.00;;;20.60
11240;BMP180;5677;48.488;13.436;2022-09-03T08:03:57;97667.00;;;20.60
11240;BMP180;5677;48.488;13.436;2022-09-03T08:06:27;97669.00;;;20.60
11240;BMP180;5677;48.488;13.436;2022-09-03T08:08:56;97665.00;;;20.60
11240;BMP180;5677;48.488;13.436;2022-09-03T08:11:26;97656.00;;;20.60
11240;BMP180;5677;48.488;13.436;2022-09-03T08:13:56;97660.00;;;20.60
11240;BMP180;5677;48.488;13.436;2022-09-03T08:16:27;97659.00;;;20.60
11240;BMP180;5677;48.488;13.436;2022-09-03T08:18:54;97669.00;;;20.60
11240;BMP180;5677;48.488;13.436;2022-09-03T08:21:23;97675.00;;;20.70
11240;BMP180;5677;48.488;13.436;2022-09-03T08:23:54;97680.00;;;20.60
11240;BMP180;5677;48.488;13.436;2022-09-03T08:26:29;97674.00;;;20.70
11240;BMP180;5677;48.488;13.436;2022-09-03T08:28:56;97683.00;;;20.70
11240;BMP180;5677;48.488;13.436;2022-09-03T08:31:24;97688.00;;;20.70
11240;BMP180;5677;48.488;13.436;2022-09-03T08:33:54;97692.00;;;20.70
11240;BMP180;5677;48.488;13.436;2022-09-03T08:36:24;97682.00;;;20.70
11240;BMP180;5677;48.488;13.436;2022-09-03T08:38:54;97694.00;;;20.70
11240;BMP180;5677;48.488;13.436;2022-09-03T08:41:27;97690.00;;;20.70
11240;BMP180;5677;48.488;13.436;2022-09-03T08:44:19;97687.00;;;20.70
11240;BMP180;5677;48.488;13.436;2022-09-03T08:46:54;97682.00;;;20.70
11240;BMP180;5677;48.488;13.436;2022-09-03T08:49:31;97678.00;;;20.70
11240;BMP180;5677;48.488;13.436;2022-09-03T08:52:05;97680.00;;;20.70
11240;BMP180;5677;48.488;13.436;2022-09-03T08:54:36;97674.00;;;20.70
11240;BMP180;5677;48.488;13.436;2022-09-03T08:57:04;97663.00;;;20.70
11240;BMP180;5677;48.488;13.436;2022-09-03T08:59:34;97666.00;;;20.70
11240;BMP180;5677;48.488;13.436;2022-09-03T09:02:16;97662.00;;;20.70
11240;BMP180;5677;48.488;13.436;2022-09-03T09:04:58;97660.00;;;20.70
11240;BMP180;5677;48.488;13.436;2022-09-03T09:07:31;97662.00;;;20.70
11240;BMP180;5677;48.488;13.436;2022-09-03T09:10:10;97660.00;;;20.70
11240;BMP180;5677;48.488;13.436;2022-09-03T09:12:47;97658.00;;;20.70
11240;BMP180;5677;48.488;13.436;2022-09-03T09:15:27;97655.00;;;20.70
11240;BMP180;5677;48.488;13.436;2022-09-03T09:18:11;97661.00;;;20.70
11240;BMP180;5677;48.488;13.436;2022-09-03T09:20:47;97662.00;;;20.70
11240;BMP180;5677;48.488;13.436;2022-09-03T09:23:21;97666.00;;;20.70
11240;BMP180;5677;48.488;13.436;2022-09-03T09:25:55;97664.00;;;20.70
11240;BMP180;5677;48.488;13.436;2022-09-03T09:28:27;97674.00;;;20.70
11240;BMP180;5677;48.488;13.436;2022-09-03T09:30:56;97678.00;;;20.70
11240;BMP180;5677;48.488;13.436;2022-09-03T09:33:24;97681.00;;;20.70
11240;BMP180;5677;48.488;13.436;2022-09-03T09:35:51;97674.00;;;20.70
11240;BMP180;5677;48.488;13.436;2022-09-03T09:38:29;97674.00;;;20.70
11240;BMP180;5677;48.488;13.436;2022-09-03T09:41:09;97666.00;;;20.70
11240;BMP180;5677;48.488;13.436;2022-09-03T09:43:37;97672.00;;;20.70
11240;BMP180;5677;48.488;13.436;2022-09-03T09:46:13;97671.00;;;20.70
11240;BMP180;5677;48.488;13.436;2022-09-03T09:48:48;97670.00;;;20.70
11240;BMP180;5677;48.488;13.436;2022-09-03T09:51:22;97671.00;;;20.70
11240;BMP180;5677;48.488;13.436;2022-09-03T09:54:01;97670.00;;;20.80
11240;BMP180;5677;48.488;13.436;2022-09-03T09:56:30;97664.00;;;20.80
11240;BMP180;5677;48.488;13.436;2022-09-03T09:59:05;97655.00;;;20.80
11240;BMP180;5677;48.488;13.436;2022-09-03T10:01:35;97658.00;;;20.80
11240;BMP180;5677;48.488;13.436;2022-09-03T10:04:09;97654.00;;;20.80
11240;BMP180;5677;48.488;13.436;2022-09-03T10:06:38;97656.00;;;20.80
11240;BMP180;5677;48.488;13.436;2022-09-03T10:09:24;97665.00;;;20.80
11240;BMP180;5677;48.488;13.436;2022-09-03T10:12:07;97664.00;;;20.80
11240;BMP180;5677;48.488;13.436;2022-09-03T10:14:41;97670.00;;;20.80
11240;BMP180;5677;48.488;13.436;2022-09-03T10:17:17;97667.00;;;20.80
11240;BMP180;5677;48.488;13.436;2022-09-03T10:19:57;97658.00;;;20.80
11240;BMP180;5677;48.488;13.436;2022-09-03T10:22:52;97659.00;;;20.80
11240;BMP180;5677;48.488;13.436;2022-09-03T10:25:22;97659.00;;;20.80
11240;BMP180;5677;48.488;13.436;2022-09-03T10:27:52;97652.00;;;20.80
11240;BMP180;5677;48.488;13.436;2022-09-03T10:30:21;97662.00;;;20.80
11240;BMP180;5677;48.488;13.436;2022-09-03T10:33:02;97658.00;;;20.80
11240;BMP180;5677;48.488;13.436;2022-09-03T10:35:40;97657.00;;;20.80
11240;BMP180;5677;48.488;13.436;2022-09-03T10:38:21;97664.00;;;20.80
11240;BMP180;5677;48.488;13.436;2022-09-03T10:41:01;97651.00;;;20.80
11240;BMP180;5677;48.488;13.436;2022-09-03T10:46:59;97652.00;;;20.80
11240;BMP180;5677;48.488;13.436;2022-09-03T10:49:49;97652.00;;;20.80
11240;BMP180;5677;48.488;13.436;2022-09-03T10:52:28;97648.00;;;20.80
11240;BMP180;5677;48.488;13.436;2022-09-03T10:55:18;97646.00;;;20.80
11240;BMP180;5677;48.488;13.436;2022-09-03T10:57:55;97639.00;;;20.80
11240;BMP180;5677;48.488;13.436;2022-09-03T11:00:28;97640.00;;;20.80
11240;BMP180;5677;48.488;13.436;2022-09-03T11:03:24;97636.00;;;20.80
11240;BMP180;5677;48.488;13.436;2022-09-03T11:06:00;97629.00;;;20.90
11240;BMP180;5677;48.488;13.436;2022-09-03T11:08:35;97628.00;;;20.90
11240;BMP180;5677;48.488;13.436;2022-09-03T11:11:12;97627.00;;;20.90
11240;BMP180;5677;48.488;13.436;2022-09-03T11:13:49;97621.00;;;20.90
11240;BMP180;5677;48.488;13.436;2022-09-03T11:16:25;97626.00;;;20.90
11240;BMP180;5677;48.488;13.436;2022-09-03T11:18:59;97625.00;;;20.90
11240;BMP180;5677;48.488;13.436;2022-09-03T11:21:30;97625.00;;;20.90
11240;BMP180;5677;48.488;13.436;2022-09-03T11:24:11;97619.00;;;20.90
11240;BMP180;5677;48.488;13.436;2022-09-03T11:26:40;97616.00;;;20.90
11240;BMP180;5677;48.488;13.436;2022-09-03T11:29:15;97606.00;;;20.90
11240;BMP180;5677;48.488;13.436;2022-09-03T11:31:58;97605.00;;;20.90
11240;BMP180;5677;48.488;13.436;2022-09-03T11:34:30;97605.00;;;20.90
11240;BMP180;5677;48.488;13.436;2022-09-03T11:37:14;97605.00;;;20.90
11240;BMP180;5677;48.488;13.436;2022-09-03T11:39:42;97612.00;;;20.90
11240;BMP180;5677;48.488;13.436;2022-09-03T11:42:12;97620.00;;;20.90
11240;BMP180;5677;48.488;13.436;2022-09-03T11:44:49;97620.00;;;20.90
11240;BMP180;5677;48.488;13.436;2022-09-03T11:47:23;97611.00;;;20.90
11240;BMP180;5677;48.488;13.436;2022-09-03T11:49:52;97614.00;;;20.90
11240;BMP180;5677;48.488;13.436;2022-09-03T11:52:31;97608.00;;;20.90
11240;BMP180;5677;48.488;13.436;2022-09-03T11:54:58;97612.00;;;21.00
11240;BMP180;5677;48.488;13.436;2022-09-03T11:57:29;97610.00;;;20.90
11240;BMP180;5677;48.488;13.436;2022-09-03T12:00:08;97609.00;;;20.90
11240;BMP180;5677;48.488;13.436;2022-09-03T12:02:44;97612.00;;;20.90
11240;BMP180;5677;48.488;13.436;2022-09-03T12:05:23;97620.00;;;20.90
11240;BMP180;5677;48.488;13.436;2022-09-03T12:08:43;97626.00;;;20.90
11240;BMP180;5677;48.488;13.436;2022-09-03T12:11:34;97623.00;;;20.90
11240;BMP180;5677;48.488;13.436;2022-09-03T12:14:13;97616.00;;;20.90
11240;BMP180;5677;48.488;13.436;2022-09-03T12:16:58;97626.00;;;20.90
11240;BMP180;5677;48.488;13.436;2022-09-03T12:19:38;97619.00;;;20.90
11240;BMP180;5677;48.488;13.436;2022-09-03T12:22:12;97619.00;;;20.90
11240;BMP180;5677;48.488;13.436;2022-09-03T12:24:40;97620.00;;;20.90
11240;BMP180;5677;48.488;13.436;2022-09-03T12:27:09;97619.00;;;20.90
11240;BMP180;5677;48.488;13.436;2022-09-03T12:29:49;97620.00;;;20.90
11240;BMP180;5677;48.488;13.436;2022-09-03T12:32:23;97622.00;;;20.90
11240;BMP180;5677;48.488;13.436;2022-09-03T12:34:53;97621.00;;;20.90
11240;BMP180;5677;48.488;13.436;2022-09-03T12:37:22;97616.00;;;20.90
11240;BMP180;5677;48.488;13.436;2022-09-03T12:39:52;97628.00;;;20.90
11240;BMP180;5677;48.488;13.436;2022-09-03T12:42:23;97620.00;;;20.90
11240;BMP180;5677;48.488;13.436;2022-09-03T12:44:52;97628.00;;;20.90
11240;BMP180;5677;48.488;13.436;2022-09-03T12:47:21;97628.00;;;20.90
11240;BMP180;5677;48.488;13.436;2022-09-03T12:49:56;97615.00;;;20.90
11240;BMP180;5677;48.488;13.436;2022-09-03T12:52:28;97612.00;;;20.90
11240;BMP180;5677;48.488;13.436;2022-09-03T12:54:59;97607.00;;;20.90
11240;BMP180;5677;48.488;13.436;2022-09-03T12:57:35;97593.00;;;20.90
11240;BMP180;5677;48.488;13.436;2022-09-03T13:00:07;97593.00;;;20.90
11240;BMP180;5677;48.488;13.436;2022-09-03T13:02:43;97592.00;;;20.90
11240;BMP180;5677;48.488;13.436;2022-09-03T13:05:18;97594.00;;;20.90
11240;BMP180;5677;48.488;13.436;2022-09-03T13:07:51;97587.00;;;20.90
11240;BMP180;5677;48.488;13.436;2022-09-03T13:10:26;97588.00;;;20.90
11240;BMP180;5677;48.488;13.436;2022-09-03T13:12:59;97579.00;;;20.90
11240;BMP180;5677;48.488;13.436;2022-09-03T13:15:28;97579.00;;;20.90
11240;BMP180;5677;48.488;13.436;2022-09-03T13:18:18;97576.00;;;20.90
11240;BMP180;5677;48.488;13.436;2022-09-03T13:21:07;97570.00;;;20.90
11240;BMP180;5677;48.488;13.436;2022-09-03T13:24:00;97571.00;;;20.90
11240;BMP180;5677;48.488;13.436;2022-09-03T13:26:41;97564.00;;;20.90
11240;BMP180;5677;48.488;13.436;2022-09-03T13:29:38;97560.00;;;20.90
11240;BMP180;5677;48.488;13.436;2022-09-03T13:32:21;97556.00;;;20.90
11240;BMP180;5677;48.488;13.436;2022-09-03T13:34:56;97562.00;;;20.90
11240;BMP180;5677;48.488;13.436;2022-09-03T13:37:34;97561.00;;;20.90
11240;BMP180;5677;48.488;13.436;2022-09-03T13:40:14;97555.00;;;20.90
11240;BMP180;5677;48.488;13.436;2022-09-03T13:42:48;97557.00;;;20.90
11240;BMP180;5677;48.488;13.436;2022-09-03T13:45:28;97564.00;;;20.90
11240;BMP180;5677;48.488;13.436;2022-09-03T13:48:06;97569.00;;;20.90
11240;BMP180;5677;48.488;13.436;2022-09-03T13:51:03;97564.00;;;20.90
11240;BMP180;5677;48.488;13.436;2022-09-03T13:53:45;97555.00;;;20.90
11240;BMP180;5677;48.488;13.436;2022-09-03T13:56:28;97553.00;;;20.90
11240;BMP180;5677;48.488;13.436;2022-09-03T13:59:07;97554.00;;;21.00
11240;BMP180;5677;48.488;13.436;2022-09-03T14:02:11;97549.00;;;20.90
11240;BMP180;5677;48.488;13.436;2022-09-03T14:04:57;97539.00;;;20.90
11240;BMP180;5677;48.488;13.436;2022-09-03T14:07:47;97533.00;;;20.90
11240;BMP180;5677;48.488;13.436;2022-09-03T14:10:29;97533.00;;;20.90
11240;BMP180;5677;48.488;13.436;2022-09-03T14:13:11;97533.00;;;20.90
11240;BMP180;5677;48.488;13.436;2022-09-03T14:15:46;97534.00;;;20.90
11240;BMP180;5677;48.488;13.436;2022-09-03T14:18:31;97532.00;;;20.90
11240;BMP180;5677;48.488;13.436;2022-09-03T14:21:06;97526.00;;;20.90
11240;BMP180;5677;48.488;13.436;2022-09-03T14:23:45;97532.00;;;20.90
11240;BMP180;5677;48.488;13.436;2022-09-03T14:26:21;97545.00;;;21.00
11240;BMP180;5677;48.488;13.436;2022-09-03T14:28:58;97532.00;;;21.00
11240;BMP180;5677;48.488;13.436;2022-09-03T14:31:49;97539.00;;;21.00
11240;BMP180;5677;48.488;13.436;2022-09-03T14:34:37;97529.00;;;21.00
11240;BMP180;5677;48.488;13.436;2022-09-03T14:37:28;97531.00;;;21.00
11240;BMP180;5677;48.488;13.436;2022-09-03T14:40:12;97534.00;;;21.00
11240;BMP180;5677;48.488;13.436;2022-09-03T14:43:05;97522.00;;;21.00
11240;BMP180;5677;48.488;13.436;2022-09-03T14:46:08;97516.00;;;21.00
11240;BMP180;5677;48.488;13.436;2022-09-03T14:48:59;97522.00;;;21.00
11240;BMP180;5677;48.488;13.436;2022-09-03T14:51:47;97524.00;;;21.00